Kezdőlap
METAR-TAF:

METAR-TAF

Repülőterek :

Kerteh, Malajzia

földrajzi szélesség: 04-32-15N, földrajzi hosszúság: 103-25-36E, magasság: 5 m

Jelenlegi meteorológiai megfigyelések

A jelentés 1 órával és 9 perccel ezelõtt készült, 00:00 UTC
Déli szél 3 kt, kelet-délkeleti és nyugat-délnyugati között változik
Hőmérséklet 27°C
Páratartalom 94%
Légköri nyomás 1009 hPa
Látótávolság: 9000 m
Kevés felhő 900 lábon

METAR: WMKE 210000Z 19003KT 120V250 9000 FEW009 27/26 Q1009 RETS

Idő: 09:09 (01:09 UTC)

Előrejelzés

A jelentés 2 órával és 9 perccel ezelõtt készült, 23:00 UTC
Az előrejelzés 21-én 00 óra UTC és 22-én 00 óra UTC között érvényes
Délkeleti szél 5 kt
Látótávolság 10 km, vagy több
Kevés felhő 1700 lábon

TAF: WMKE 202300Z 2100/2200 14005KT 9999 FEW017

Meteorológiai megfigyelések és előrejelzések több, mint 4000 repülőtéren (METAR és TAF jelentéseket).

A térképen piros és sárga pontok jelzik az elérhető meteorológiai állomásokat.

Mozgassa az egeret a pont fölött, hogy megjelenjen az állomás neve.

Azután kattintson az időjárási megfigyelések és előrejelzések megtekintéséhez.

A térkép megváltoztatása: kattintson a fekete keresztel jelölt zöld gombra ráközelítéshez, a vonallal jelölt zöld gombra távolításhoz, vagy a zöld nyilakra a szomszédos térképek eléréséhez.


METAR-TAF: